sensor_id;sensor_type;location;lat;lon;timestamp;P1;durP1;ratioP1;P2;durP2;ratioP2
40787;SDS011;26497;52.494;7.546;2023-12-22T00:00:02;335.08;;;314.10;;
40787;SDS011;26497;52.494;7.546;2023-12-22T00:02:30;367.40;;;343.77;;
40787;SDS011;26497;52.494;7.546;2023-12-22T00:04:59;384.05;;;357.90;;
40787;SDS011;26497;52.494;7.546;2023-12-22T00:07:26;369.00;;;343.83;;
40787;SDS011;26497;52.494;7.546;2023-12-22T00:09:53;340.83;;;317.88;;
40787;SDS011;26497;52.494;7.546;2023-12-22T00:12:20;300.30;;;280.45;;
40787;SDS011;26497;52.494;7.546;2023-12-22T00:14:47;264.35;;;247.00;;
40787;SDS011;26497;52.494;7.546;2023-12-22T00:17:14;227.55;;;208.93;;
40787;SDS011;26497;52.494;7.546;2023-12-22T00:19:41;182.80;;;170.48;;
40787;SDS011;26497;52.494;7.546;2023-12-22T00:22:10;159.75;;;144.90;;
40787;SDS011;26497;52.494;7.546;2023-12-22T00:24:37;132.65;;;121.32;;
40787;SDS011;26497;52.494;7.546;2023-12-22T00:27:04;115.10;;;104.63;;
40787;SDS011;26497;52.494;7.546;2023-12-22T00:29:31;105.68;;;95.07;;
40787;SDS011;26497;52.494;7.546;2023-12-22T00:32:01;89.38;;;81.18;;
40787;SDS011;26497;52.494;7.546;2023-12-22T00:34:28;71.93;;;65.80;;
40787;SDS011;26497;52.494;7.546;2023-12-22T00:36:55;68.95;;;64.05;;
40787;SDS011;26497;52.494;7.546;2023-12-22T00:39:24;1999.90;;;999.90;;
40787;SDS011;26497;52.494;7.546;2023-12-22T00:41:51;1999.90;;;999.90;;
40787;SDS011;26497;52.494;7.546;2023-12-22T00:44:18;1999.90;;;999.90;;
40787;SDS011;26497;52.494;7.546;2023-12-22T00:46:45;1999.90;;;999.90;;
40787;SDS011;26497;52.494;7.546;2023-12-22T00:49:12;1999.90;;;999.90;;
40787;SDS011;26497;52.494;7.546;2023-12-22T00:51:39;1999.90;;;999.90;;
40787;SDS011;26497;52.494;7.546;2023-12-22T00:54:06;1999.90;;;999.90;;
40787;SDS011;26497;52.494;7.546;2023-12-22T00:56:35;1999.90;;;999.90;;
40787;SDS011;26497;52.494;7.546;2023-12-22T00:59:02;1999.90;;;999.90;;
40787;SDS011;26497;52.494;7.546;2023-12-22T01:01:29;1511.55;;;759.85;;
40787;SDS011;26497;52.494;7.546;2023-12-22T01:03:56;43.17;;;38.75;;
40787;SDS011;26497;52.494;7.546;2023-12-22T01:06:23;44.30;;;39.65;;
40787;SDS011;26497;52.494;7.546;2023-12-22T01:08:50;55.65;;;40.85;;
40787;SDS011;26497;52.494;7.546;2023-12-22T01:11:18;53.78;;;42.25;;
40787;SDS011;26497;52.494;7.546;2023-12-22T01:13:46;64.75;;;43.78;;
40787;SDS011;26497;52.494;7.546;2023-12-22T01:16:14;70.10;;;46.85;;
40787;SDS011;26497;52.494;7.546;2023-12-22T01:18:43;59.75;;;43.95;;
40787;SDS011;26497;52.494;7.546;2023-12-22T01:21:10;64.05;;;47.25;;
40787;SDS011;26497;52.494;7.546;2023-12-22T01:23:37;71.85;;;45.92;;
40787;SDS011;26497;52.494;7.546;2023-12-22T01:26:04;86.00;;;50.38;;
40787;SDS011;26497;52.494;7.546;2023-12-22T01:28:31;69.35;;;51.53;;
40787;SDS011;26497;52.494;7.546;2023-12-22T01:31:01;66.25;;;52.90;;
40787;SDS011;26497;52.494;7.546;2023-12-22T01:33:28;70.72;;;52.00;;
40787;SDS011;26497;52.494;7.546;2023-12-22T01:35:55;72.70;;;49.75;;
40787;SDS011;26497;52.494;7.546;2023-12-22T01:38:22;78.47;;;50.97;;
40787;SDS011;26497;52.494;7.546;2023-12-22T01:40:49;71.88;;;47.80;;
40787;SDS011;26497;52.494;7.546;2023-12-22T01:43:16;54.47;;;45.75;;
40787;SDS011;26497;52.494;7.546;2023-12-22T01:45:46;54.30;;;42.47;;
40787;SDS011;26497;52.494;7.546;2023-12-22T01:48:14;41.67;;;36.78;;
40787;SDS011;26497;52.494;7.546;2023-12-22T01:50:42;1999.90;;;999.90;;
40787;SDS011;26497;52.494;7.546;2023-12-22T01:53:10;1999.90;;;999.90;;
40787;SDS011;26497;52.494;7.546;2023-12-22T01:55:37;1999.90;;;999.90;;
40787;SDS011;26497;52.494;7.546;2023-12-22T01:58:05;1999.90;;;999.90;;
40787;SDS011;26497;52.494;7.546;2023-12-22T02:00:32;1999.90;;;999.90;;
40787;SDS011;26497;52.494;7.546;2023-12-22T02:02:59;1999.90;;;999.90;;
40787;SDS011;26497;52.494;7.546;2023-12-22T02:05:27;1999.90;;;999.90;;
40787;SDS011;26497;52.494;7.546;2023-12-22T02:07:55;1999.90;;;999.90;;
40787;SDS011;26497;52.494;7.546;2023-12-22T02:10:22;1999.90;;;999.90;;
40787;SDS011;26497;52.494;7.546;2023-12-22T02:12:50;1999.90;;;999.90;;
40787;SDS011;26497;52.494;7.546;2023-12-22T02:15:17;1999.90;;;999.90;;
40787;SDS011;26497;52.494;7.546;2023-12-22T02:17:46;1999.90;;;999.90;;
40787;SDS011;26497;52.494;7.546;2023-12-22T02:20:21;1999.90;;;999.90;;
40787;SDS011;26497;52.494;7.546;2023-12-22T02:22:52;46.65;;;39.38;;
40787;SDS011;26497;52.494;7.546;2023-12-22T02:25:19;56.35;;;38.80;;
40787;SDS011;26497;52.494;7.546;2023-12-22T02:27:47;43.92;;;38.22;;
40787;SDS011;26497;52.494;7.546;2023-12-22T02:30:18;65.00;;;40.45;;
40787;SDS011;26497;52.494;7.546;2023-12-22T02:32:59;1513.97;;;760.15;;
40787;SDS011;26497;52.494;7.546;2023-12-22T02:35:29;698.23;;;360.10;;
40787;SDS011;26497;52.494;7.546;2023-12-22T02:38:03;1999.90;;;999.90;;
40787;SDS011;26497;52.494;7.546;2023-12-22T02:40:32;1999.90;;;999.90;;
40787;SDS011;26497;52.494;7.546;2023-12-22T02:43:00;1999.90;;;999.90;;
40787;SDS011;26497;52.494;7.546;2023-12-22T02:45:28;1999.90;;;999.90;;
40787;SDS011;26497;52.494;7.546;2023-12-22T02:47:57;1999.90;;;999.90;;
40787;SDS011;26497;52.494;7.546;2023-12-22T02:50:24;1999.90;;;999.90;;
40787;SDS011;26497;52.494;7.546;2023-12-22T02:52:51;1999.90;;;999.90;;
40787;SDS011;26497;52.494;7.546;2023-12-22T02:55:20;1999.90;;;999.90;;
40787;SDS011;26497;52.494;7.546;2023-12-22T02:57:47;1999.90;;;999.90;;
40787;SDS011;26497;52.494;7.546;2023-12-22T03:00:14;1999.90;;;999.90;;
40787;SDS011;26497;52.494;7.546;2023-12-22T03:02:41;1999.90;;;999.90;;
40787;SDS011;26497;52.494;7.546;2023-12-22T03:05:09;1999.90;;;999.90;;
40787;SDS011;26497;52.494;7.546;2023-12-22T03:07:36;1999.90;;;999.90;;
40787;SDS011;26497;52.494;7.546;2023-12-22T03:10:03;125.00;;;115.72;;
40787;SDS011;26497;52.494;7.546;2023-12-22T03:12:32;135.73;;;126.45;;
40787;SDS011;26497;52.494;7.546;2023-12-22T03:14:59;153.18;;;141.73;;
40787;SDS011;26497;52.494;7.546;2023-12-22T03:17:26;168.25;;;156.82;;
40787;SDS011;26497;52.494;7.546;2023-12-22T03:19:53;161.32;;;149.48;;
40787;SDS011;26497;52.494;7.546;2023-12-22T03:22:20;156.95;;;145.93;;
40787;SDS011;26497;52.494;7.546;2023-12-22T03:24:48;153.52;;;141.32;;
40787;SDS011;26497;52.494;7.546;2023-12-22T03:27:15;140.20;;;129.43;;
40787;SDS011;26497;52.494;7.546;2023-12-22T03:29:44;126.05;;;116.93;;
40787;SDS011;26497;52.494;7.546;2023-12-22T03:32:11;115.03;;;106.53;;
40787;SDS011;26497;52.494;7.546;2023-12-22T03:34:38;110.88;;;102.85;;
40787;SDS011;26497;52.494;7.546;2023-12-22T03:37:06;102.63;;;94.32;;
40787;SDS011;26497;52.494;7.546;2023-12-22T03:39:33;94.10;;;86.78;;
40787;SDS011;26497;52.494;7.546;2023-12-22T03:42:00;79.88;;;73.25;;
40787;SDS011;26497;52.494;7.546;2023-12-22T03:44:27;69.35;;;64.20;;
40787;SDS011;26497;52.494;7.546;2023-12-22T03:46:56;67.30;;;61.50;;
40787;SDS011;26497;52.494;7.546;2023-12-22T03:49:23;61.25;;;56.13;;
40787;SDS011;26497;52.494;7.546;2023-12-22T03:51:50;51.72;;;47.42;;
40787;SDS011;26497;52.494;7.546;2023-12-22T03:54:18;1512.13;;;761.10;;
40787;SDS011;26497;52.494;7.546;2023-12-22T03:56:45;1512.78;;;761.50;;
40787;SDS011;26497;52.494;7.546;2023-12-22T03:59:12;50.63;;;46.05;;
40787;SDS011;26497;52.494;7.546;2023-12-22T04:01:39;50.10;;;45.33;;
40787;SDS011;26497;52.494;7.546;2023-12-22T04:04:07;54.35;;;49.42;;
40787;SDS011;26497;52.494;7.546;2023-12-22T04:06:37;59.40;;;53.90;;
40787;SDS011;26497;52.494;7.546;2023-12-22T04:09:05;65.22;;;60.05;;
40787;SDS011;26497;52.494;7.546;2023-12-22T04:11:32;71.53;;;65.57;;
40787;SDS011;26497;52.494;7.546;2023-12-22T04:14:00;76.75;;;71.43;;
40787;SDS011;26497;52.494;7.546;2023-12-22T04:16:27;80.68;;;74.38;;
40787;SDS011;26497;52.494;7.546;2023-12-22T04:18:54;85.68;;;79.95;;
40787;SDS011;26497;52.494;7.546;2023-12-22T04:21:22;95.63;;;89.07;;
40787;SDS011;26497;52.494;7.546;2023-12-22T04:23:49;106.57;;;99.75;;
40787;SDS011;26497;52.494;7.546;2023-12-22T04:26:16;112.43;;;104.68;;
40787;SDS011;26497;52.494;7.546;2023-12-22T04:28:43;118.18;;;110.28;;
40787;SDS011;26497;52.494;7.546;2023-12-22T04:31:10;125.47;;;117.93;;
40787;SDS011;26497;52.494;7.546;2023-12-22T04:33:37;139.05;;;130.93;;
40787;SDS011;26497;52.494;7.546;2023-12-22T04:36:05;146.80;;;137.50;;
40787;SDS011;26497;52.494;7.546;2023-12-22T04:38:34;160.57;;;150.70;;
40787;SDS011;26497;52.494;7.546;2023-12-22T04:41:01;169.65;;;159.05;;
40787;SDS011;26497;52.494;7.546;2023-12-22T04:43:28;177.50;;;167.68;;
40787;SDS011;26497;52.494;7.546;2023-12-22T04:45:55;164.00;;;154.00;;
40787;SDS011;26497;52.494;7.546;2023-12-22T04:48:22;172.48;;;161.88;;
40787;SDS011;26497;52.494;7.546;2023-12-22T04:50:49;172.15;;;162.20;;
40787;SDS011;26497;52.494;7.546;2023-12-22T04:53:16;161.43;;;152.15;;
40787;SDS011;26497;52.494;7.546;2023-12-22T04:55:45;155.70;;;146.00;;
40787;SDS011;26497;52.494;7.546;2023-12-22T04:58:12;149.02;;;140.52;;
40787;SDS011;26497;52.494;7.546;2023-12-22T05:00:39;140.98;;;131.45;;
40787;SDS011;26497;52.494;7.546;2023-12-22T05:03:06;134.57;;;125.88;;
40787;SDS011;26497;52.494;7.546;2023-12-22T05:05:33;132.23;;;124.45;;
40787;SDS011;26497;52.494;7.546;2023-12-22T05:08:00;143.75;;;134.18;;
40787;SDS011;26497;52.494;7.546;2023-12-22T05:10:27;140.45;;;132.43;;
40787;SDS011;26497;52.494;7.546;2023-12-22T05:12:56;141.85;;;133.60;;
40787;SDS011;26497;52.494;7.546;2023-12-22T05:15:23;136.32;;;128.15;;
40787;SDS011;26497;52.494;7.546;2023-12-22T05:17:51;1999.90;;;999.90;;
40787;SDS011;26497;52.494;7.546;2023-12-22T05:20:18;1999.90;;;999.90;;
40787;SDS011;26497;52.494;7.546;2023-12-22T05:22:45;1999.90;;;999.90;;
40787;SDS011;26497;52.494;7.546;2023-12-22T05:25:13;1999.90;;;999.90;;
40787;SDS011;26497;52.494;7.546;2023-12-22T05:27:40;1999.90;;;999.90;;
40787;SDS011;26497;52.494;7.546;2023-12-22T05:30:10;1999.90;;;999.90;;
40787;SDS011;26497;52.494;7.546;2023-12-22T05:32:38;1999.90;;;999.90;;
40787;SDS011;26497;52.494;7.546;2023-12-22T05:35:06;1999.90;;;999.90;;
40787;SDS011;26497;52.494;7.546;2023-12-22T05:37:35;1999.90;;;999.90;;
40787;SDS011;26497;52.494;7.546;2023-12-22T05:40:02;1529.60;;;777.22;;
40787;SDS011;26497;52.494;7.546;2023-12-22T05:42:31;1530.95;;;778.83;;
40787;SDS011;26497;52.494;7.546;2023-12-22T05:44:58;126.45;;;118.13;;
40787;SDS011;26497;52.494;7.546;2023-12-22T05:47:27;134.57;;;126.28;;
40787;SDS011;26497;52.494;7.546;2023-12-22T05:49:54;140.90;;;132.10;;
40787;SDS011;26497;52.494;7.546;2023-12-22T05:52:21;149.35;;;139.52;;
40787;SDS011;26497;52.494;7.546;2023-12-22T05:54:48;161.43;;;151.85;;
40787;SDS011;26497;52.494;7.546;2023-12-22T05:57:15;178.95;;;166.23;;
40787;SDS011;26497;52.494;7.546;2023-12-22T05:59:42;197.65;;;184.93;;
40787;SDS011;26497;52.494;7.546;2023-12-22T06:02:09;212.02;;;197.68;;
40787;SDS011;26497;52.494;7.546;2023-12-22T06:04:37;239.63;;;224.40;;
40787;SDS011;26497;52.494;7.546;2023-12-22T06:07:04;255.35;;;239.75;;
40787;SDS011;26497;52.494;7.546;2023-12-22T06:09:31;262.65;;;247.00;;
40787;SDS011;26497;52.494;7.546;2023-12-22T06:11:59;280.15;;;263.20;;
40787;SDS011;26497;52.494;7.546;2023-12-22T06:14:26;308.90;;;288.52;;
40787;SDS011;26497;52.494;7.546;2023-12-22T06:16:53;322.08;;;302.27;;
40787;SDS011;26497;52.494;7.546;2023-12-22T06:19:24;311.38;;;293.10;;
40787;SDS011;26497;52.494;7.546;2023-12-22T06:21:56;330.13;;;310.42;;
40787;SDS011;26497;52.494;7.546;2023-12-22T06:24:25;329.25;;;308.83;;
40787;SDS011;26497;52.494;7.546;2023-12-22T06:26:52;344.60;;;322.88;;
40787;SDS011;26497;52.494;7.546;2023-12-22T06:29:19;327.23;;;307.80;;
40787;SDS011;26497;52.494;7.546;2023-12-22T06:31:47;330.33;;;310.17;;
40787;SDS011;26497;52.494;7.546;2023-12-22T06:34:15;327.25;;;308.30;;
40787;SDS011;26497;52.494;7.546;2023-12-22T06:36:42;331.52;;;311.00;;
40787;SDS011;26497;52.494;7.546;2023-12-22T06:39:11;336.38;;;315.77;;
40787;SDS011;26497;52.494;7.546;2023-12-22T06:41:38;324.95;;;305.00;;
40787;SDS011;26497;52.494;7.546;2023-12-22T06:44:06;338.80;;;316.38;;
40787;SDS011;26497;52.494;7.546;2023-12-22T06:46:35;333.70;;;313.42;;
40787;SDS011;26497;52.494;7.546;2023-12-22T06:49:02;325.95;;;306.42;;
40787;SDS011;26497;52.494;7.546;2023-12-22T06:51:30;313.85;;;295.52;;
40787;SDS011;26497;52.494;7.546;2023-12-22T06:54:00;312.25;;;293.10;;
40787;SDS011;26497;52.494;7.546;2023-12-22T06:56:32;313.77;;;294.55;;
40787;SDS011;26497;52.494;7.546;2023-12-22T06:59:01;307.58;;;289.63;;
40787;SDS011;26497;52.494;7.546;2023-12-22T07:01:29;301.52;;;282.73;;
40787;SDS011;26497;52.494;7.546;2023-12-22T07:03:58;308.08;;;289.83;;
40787;SDS011;26497;52.494;7.546;2023-12-22T07:06:27;297.63;;;279.58;;
40787;SDS011;26497;52.494;7.546;2023-12-22T07:08:56;284.60;;;266.98;;
40787;SDS011;26497;52.494;7.546;2023-12-22T07:11:45;279.45;;;262.15;;
40787;SDS011;26497;52.494;7.546;2023-12-22T07:14:15;271.83;;;254.52;;
40787;SDS011;26497;52.494;7.546;2023-12-22T07:16:42;249.02;;;232.88;;
40787;SDS011;26497;52.494;7.546;2023-12-22T07:19:09;241.63;;;226.60;;
40787;SDS011;26497;52.494;7.546;2023-12-22T07:21:38;236.88;;;221.75;;
40787;SDS011;26497;52.494;7.546;2023-12-22T07:24:05;219.10;;;204.23;;
40787;SDS011;26497;52.494;7.546;2023-12-22T07:26:32;205.50;;;192.60;;
40787;SDS011;26497;52.494;7.546;2023-12-22T07:29:01;197.77;;;183.00;;
40787;SDS011;26497;52.494;7.546;2023-12-22T07:31:28;192.50;;;179.90;;
40787;SDS011;26497;52.494;7.546;2023-12-22T07:33:55;185.25;;;173.95;;
40787;SDS011;26497;52.494;7.546;2023-12-22T07:36:22;177.93;;;167.10;;
40787;SDS011;26497;52.494;7.546;2023-12-22T07:38:49;174.85;;;164.18;;
40787;SDS011;26497;52.494;7.546;2023-12-22T07:41:16;162.07;;;151.45;;
40787;SDS011;26497;52.494;7.546;2023-12-22T07:43:43;152.88;;;143.55;;
40787;SDS011;26497;52.494;7.546;2023-12-22T07:46:17;147.23;;;137.32;;
40787;SDS011;26497;52.494;7.546;2023-12-22T07:48:44;140.45;;;130.15;;
40787;SDS011;26497;52.494;7.546;2023-12-22T07:51:11;133.48;;;124.38;;
40787;SDS011;26497;52.494;7.546;2023-12-22T07:53:38;122.82;;;113.60;;
40787;SDS011;26497;52.494;7.546;2023-12-22T07:56:06;109.80;;;101.88;;
40787;SDS011;26497;52.494;7.546;2023-12-22T07:58:35;96.55;;;90.22;;
40787;SDS011;26497;52.494;7.546;2023-12-22T08:01:03;92.10;;;85.28;;
40787;SDS011;26497;52.494;7.546;2023-12-22T08:03:32;88.43;;;82.35;;
40787;SDS011;26497;52.494;7.546;2023-12-22T08:05:59;83.47;;;77.63;;
40787;SDS011;26497;52.494;7.546;2023-12-22T08:08:27;81.68;;;75.38;;
40787;SDS011;26497;52.494;7.546;2023-12-22T08:10:54;79.78;;;73.00;;
40787;SDS011;26497;52.494;7.546;2023-12-22T08:13:21;84.40;;;76.80;;
40787;SDS011;26497;52.494;7.546;2023-12-22T08:15:48;82.70;;;76.47;;
40787;SDS011;26497;52.494;7.546;2023-12-22T08:18:15;77.22;;;70.55;;
40787;SDS011;26497;52.494;7.546;2023-12-22T08:20:43;79.40;;;74.05;;
40787;SDS011;26497;52.494;7.546;2023-12-22T08:23:13;85.00;;;78.95;;
40787;SDS011;26497;52.494;7.546;2023-12-22T08:25:49;86.15;;;79.95;;
40787;SDS011;26497;52.494;7.546;2023-12-22T08:28:16;90.53;;;83.20;;
40787;SDS011;26497;52.494;7.546;2023-12-22T08:30:44;96.03;;;89.80;;
40787;SDS011;26497;52.494;7.546;2023-12-22T08:33:11;104.18;;;96.13;;
40787;SDS011;26497;52.494;7.546;2023-12-22T08:35:38;113.97;;;104.93;;
40787;SDS011;26497;52.494;7.546;2023-12-22T08:38:07;114.82;;;106.28;;
40787;SDS011;26497;52.494;7.546;2023-12-22T08:40:34;111.50;;;103.55;;
40787;SDS011;26497;52.494;7.546;2023-12-22T08:43:01;118.60;;;108.47;;
40787;SDS011;26497;52.494;7.546;2023-12-22T08:45:29;128.18;;;119.00;;
40787;SDS011;26497;52.494;7.546;2023-12-22T08:47:56;130.85;;;121.70;;
40787;SDS011;26497;52.494;7.546;2023-12-22T08:50:23;136.95;;;126.70;;
40787;SDS011;26497;52.494;7.546;2023-12-22T08:52:50;131.02;;;121.97;;
40787;SDS011;26497;52.494;7.546;2023-12-22T08:55:19;129.38;;;120.35;;
40787;SDS011;26497;52.494;7.546;2023-12-22T08:57:46;120.72;;;112.35;;
40787;SDS011;26497;52.494;7.546;2023-12-22T09:00:13;123.05;;;115.13;;
40787;SDS011;26497;52.494;7.546;2023-12-22T09:02:41;129.10;;;119.93;;
40787;SDS011;26497;52.494;7.546;2023-12-22T09:05:08;129.93;;;121.50;;
40787;SDS011;26497;52.494;7.546;2023-12-22T09:07:35;134.85;;;124.85;;
40787;SDS011;26497;52.494;7.546;2023-12-22T09:10:03;138.13;;;129.27;;
40787;SDS011;26497;52.494;7.546;2023-12-22T09:12:32;134.65;;;125.10;;
40787;SDS011;26497;52.494;7.546;2023-12-22T09:14:59;145.18;;;133.88;;
40787;SDS011;26497;52.494;7.546;2023-12-22T09:17:26;149.10;;;138.52;;
40787;SDS011;26497;52.494;7.546;2023-12-22T09:19:53;161.38;;;151.75;;
40787;SDS011;26497;52.494;7.546;2023-12-22T09:22:21;158.88;;;148.45;;
40787;SDS011;26497;52.494;7.546;2023-12-22T09:24:48;162.35;;;151.95;;
40787;SDS011;26497;52.494;7.546;2023-12-22T09:27:15;178.98;;;167.55;;
40787;SDS011;26497;52.494;7.546;2023-12-22T09:29:43;183.88;;;172.18;;
40787;SDS011;26497;52.494;7.546;2023-12-22T09:32:10;188.35;;;176.63;;
40787;SDS011;26497;52.494;7.546;2023-12-22T09:34:38;194.32;;;182.50;;
40787;SDS011;26497;52.494;7.546;2023-12-22T09:37:05;206.55;;;194.40;;
40787;SDS011;26497;52.494;7.546;2023-12-22T09:39:33;200.38;;;188.48;;
40787;SDS011;26497;52.494;7.546;2023-12-22T09:42:00;197.75;;;185.65;;
40787;SDS011;26497;52.494;7.546;2023-12-22T09:44:27;187.80;;;176.90;;
40787;SDS011;26497;52.494;7.546;2023-12-22T09:47:00;188.80;;;176.90;;
40787;SDS011;26497;52.494;7.546;2023-12-22T09:49:32;178.43;;;166.95;;
40787;SDS011;26497;52.494;7.546;2023-12-22T09:52:00;157.30;;;148.07;;
40787;SDS011;26497;52.494;7.546;2023-12-22T09:54:30;144.13;;;136.07;;
40787;SDS011;26497;52.494;7.546;2023-12-22T09:56:58;126.75;;;119.25;;
40787;SDS011;26497;52.494;7.546;2023-12-22T09:59:26;110.90;;;104.00;;
40787;SDS011;26497;52.494;7.546;2023-12-22T10:01:55;105.95;;;99.65;;
40787;SDS011;26497;52.494;7.546;2023-12-22T10:04:25;99.03;;;92.00;;
40787;SDS011;26497;52.494;7.546;2023-12-22T10:06:52;91.03;;;85.25;;
40787;SDS011;26497;52.494;7.546;2023-12-22T10:09:22;92.32;;;85.68;;
40787;SDS011;26497;52.494;7.546;2023-12-22T10:11:49;83.03;;;77.65;;
40787;SDS011;26497;52.494;7.546;2023-12-22T10:14:19;75.80;;;71.20;;
40787;SDS011;26497;52.494;7.546;2023-12-22T10:16:48;70.72;;;66.45;;
40787;SDS011;26497;52.494;7.546;2023-12-22T10:19:16;65.47;;;60.58;;
40787;SDS011;26497;52.494;7.546;2023-12-22T10:21:44;61.00;;;56.90;;
40787;SDS011;26497;52.494;7.546;2023-12-22T10:27:08;54.88;;;50.85;;
40787;SDS011;26497;52.494;7.546;2023-12-22T10:29:37;56.75;;;52.35;;
40787;SDS011;26497;52.494;7.546;2023-12-22T10:32:05;57.58;;;53.75;;
40787;SDS011;26497;52.494;7.546;2023-12-22T10:34:34;54.05;;;50.50;;
40787;SDS011;26497;52.494;7.546;2023-12-22T10:37:03;53.97;;;50.08;;
40787;SDS011;26497;52.494;7.546;2023-12-22T10:39:31;52.25;;;49.03;;
40787;SDS011;26497;52.494;7.546;2023-12-22T10:41:59;51.92;;;48.67;;
40787;SDS011;26497;52.494;7.546;2023-12-22T10:44:27;54.08;;;49.90;;
40787;SDS011;26497;52.494;7.546;2023-12-22T10:46:55;50.75;;;47.03;;
40787;SDS011;26497;52.494;7.546;2023-12-22T10:49:23;49.47;;;45.53;;
40787;SDS011;26497;52.494;7.546;2023-12-22T10:51:51;47.58;;;44.83;;
40787;SDS011;26497;52.494;7.546;2023-12-22T10:54:20;49.03;;;45.60;;
40787;SDS011;26497;52.494;7.546;2023-12-22T10:56:47;54.75;;;50.83;;
40787;SDS011;26497;52.494;7.546;2023-12-22T10:59:16;51.58;;;47.95;;
40787;SDS011;26497;52.494;7.546;2023-12-22T11:01:44;49.28;;;45.55;;
40787;SDS011;26497;52.494;7.546;2023-12-22T11:04:17;50.22;;;45.90;;
40787;SDS011;26497;52.494;7.546;2023-12-22T11:06:48;47.75;;;44.35;;
40787;SDS011;26497;52.494;7.546;2023-12-22T11:09:18;50.80;;;47.83;;
40787;SDS011;26497;52.494;7.546;2023-12-22T11:11:52;52.67;;;48.83;;
40787;SDS011;26497;52.494;7.546;2023-12-22T11:14:22;55.17;;;50.88;;
40787;SDS011;26497;52.494;7.546;2023-12-22T11:16:52;57.25;;;53.95;;
40787;SDS011;26497;52.494;7.546;2023-12-22T11:19:21;57.35;;;53.97;;
40787;SDS011;26497;52.494;7.546;2023-12-22T11:21:51;58.95;;;54.72;;
40787;SDS011;26497;52.494;7.546;2023-12-22T11:24:20;59.47;;;56.08;;
40787;SDS011;26497;52.494;7.546;2023-12-22T11:26:49;62.47;;;58.58;;
40787;SDS011;26497;52.494;7.546;2023-12-22T11:29:18;65.57;;;61.60;;
40787;SDS011;26497;52.494;7.546;2023-12-22T11:31:46;66.32;;;62.65;;
40787;SDS011;26497;52.494;7.546;2023-12-22T11:34:16;68.15;;;63.78;;
40787;SDS011;26497;52.494;7.546;2023-12-22T11:36:44;70.65;;;66.10;;
40787;SDS011;26497;52.494;7.546;2023-12-22T11:39:13;72.53;;;67.60;;
40787;SDS011;26497;52.494;7.546;2023-12-22T11:41:41;75.63;;;71.28;;
40787;SDS011;26497;52.494;7.546;2023-12-22T11:44:10;72.63;;;68.05;;
40787;SDS011;26497;52.494;7.546;2023-12-22T11:46:38;72.57;;;67.97;;
40787;SDS011;26497;52.494;7.546;2023-12-22T11:49:05;68.82;;;64.82;;
40787;SDS011;26497;52.494;7.546;2023-12-22T11:51:33;73.40;;;68.90;;
40787;SDS011;26497;52.494;7.546;2023-12-22T11:54:01;78.50;;;73.47;;
40787;SDS011;26497;52.494;7.546;2023-12-22T11:56:29;78.68;;;74.18;;
40787;SDS011;26497;52.494;7.546;2023-12-22T11:58:57;75.72;;;71.20;;
40787;SDS011;26497;52.494;7.546;2023-12-22T12:01:27;73.50;;;69.20;;
40787;SDS011;26497;52.494;7.546;2023-12-22T12:03:57;74.90;;;70.63;;
40787;SDS011;26497;52.494;7.546;2023-12-22T12:06:32;77.60;;;72.13;;
40787;SDS011;26497;52.494;7.546;2023-12-22T12:09:03;72.10;;;67.45;;
40787;SDS011;26497;52.494;7.546;2023-12-22T12:14:40;69.75;;;65.93;;
40787;SDS011;26497;52.494;7.546;2023-12-22T12:17:10;68.28;;;64.55;;
40787;SDS011;26497;52.494;7.546;2023-12-22T12:19:43;64.75;;;61.08;;
40787;SDS011;26497;52.494;7.546;2023-12-22T12:22:11;64.63;;;61.08;;
40787;SDS011;26497;52.494;7.546;2023-12-22T12:24:38;63.35;;;59.67;;
40787;SDS011;26497;52.494;7.546;2023-12-22T12:27:06;63.35;;;59.90;;
40787;SDS011;26497;52.494;7.546;2023-12-22T12:29:34;66.32;;;62.72;;
40787;SDS011;26497;52.494;7.546;2023-12-22T12:32:02;66.03;;;62.22;;
40787;SDS011;26497;52.494;7.546;2023-12-22T12:34:32;69.28;;;64.75;;
40787;SDS011;26497;52.494;7.546;2023-12-22T12:36:59;69.53;;;65.85;;
40787;SDS011;26497;52.494;7.546;2023-12-22T12:39:29;75.75;;;71.45;;
40787;SDS011;26497;52.494;7.546;2023-12-22T12:42:00;76.07;;;72.07;;
40787;SDS011;26497;52.494;7.546;2023-12-22T12:44:27;79.72;;;75.43;;
40787;SDS011;26497;52.494;7.546;2023-12-22T12:46:57;83.65;;;79.22;;
40787;SDS011;26497;52.494;7.546;2023-12-22T12:49:25;85.63;;;81.22;;
40787;SDS011;26497;52.494;7.546;2023-12-22T12:51:57;82.57;;;78.03;;
40787;SDS011;26497;52.494;7.546;2023-12-22T12:54:28;81.10;;;76.70;;
40787;SDS011;26497;52.494;7.546;2023-12-22T12:56:55;82.18;;;77.70;;
40787;SDS011;26497;52.494;7.546;2023-12-22T12:59:22;83.00;;;78.22;;
40787;SDS011;26497;52.494;7.546;2023-12-22T13:01:50;83.13;;;78.78;;
40787;SDS011;26497;52.494;7.546;2023-12-22T13:04:18;84.30;;;79.50;;
40787;SDS011;26497;52.494;7.546;2023-12-22T13:06:45;81.60;;;77.32;;
40787;SDS011;26497;52.494;7.546;2023-12-22T13:09:14;86.07;;;80.97;;
40787;SDS011;26497;52.494;7.546;2023-12-22T13:11:43;84.43;;;79.93;;
40787;SDS011;26497;52.494;7.546;2023-12-22T13:14:12;83.93;;;79.32;;
40787;SDS011;26497;52.494;7.546;2023-12-22T13:16:48;82.10;;;77.85;;
40787;SDS011;26497;52.494;7.546;2023-12-22T13:19:17;86.78;;;82.18;;
40787;SDS011;26497;52.494;7.546;2023-12-22T13:21:45;92.35;;;87.15;;
40787;SDS011;26497;52.494;7.546;2023-12-22T13:24:13;97.97;;;92.43;;
40787;SDS011;26497;52.494;7.546;2023-12-22T13:26:43;105.72;;;99.45;;
40787;SDS011;26497;52.494;7.546;2023-12-22T13:29:12;114.00;;;108.00;;
40787;SDS011;26497;52.494;7.546;2023-12-22T13:31:40;120.95;;;114.28;;
40787;SDS011;26497;52.494;7.546;2023-12-22T13:34:10;128.93;;;121.43;;
40787;SDS011;26497;52.494;7.546;2023-12-22T13:36:39;142.68;;;134.63;;
40787;SDS011;26497;52.494;7.546;2023-12-22T13:39:07;147.25;;;139.27;;
40787;SDS011;26497;52.494;7.546;2023-12-22T13:41:39;148.32;;;140.38;;
40787;SDS011;26497;52.494;7.546;2023-12-22T13:44:10;156.40;;;148.00;;
40787;SDS011;26497;52.494;7.546;2023-12-22T13:46:38;157.10;;;148.35;;
40787;SDS011;26497;52.494;7.546;2023-12-22T13:49:07;162.18;;;153.30;;
40787;SDS011;26497;52.494;7.546;2023-12-22T13:51:39;162.27;;;153.23;;
40787;SDS011;26497;52.494;7.546;2023-12-22T13:54:08;168.90;;;159.70;;
40787;SDS011;26497;52.494;7.546;2023-12-22T13:56:35;173.55;;;163.13;;
40787;SDS011;26497;52.494;7.546;2023-12-22T13:59:06;175.95;;;166.05;;
40787;SDS011;26497;52.494;7.546;2023-12-22T14:01:34;184.00;;;173.00;;
40787;SDS011;26497;52.494;7.546;2023-12-22T14:04:01;189.77;;;179.02;;
40787;SDS011;26497;52.494;7.546;2023-12-22T14:06:29;196.30;;;185.50;;
40787;SDS011;26497;52.494;7.546;2023-12-22T14:08:56;206.23;;;195.10;;
40787;SDS011;26497;52.494;7.546;2023-12-22T14:11:23;216.85;;;204.95;;
40787;SDS011;26497;52.494;7.546;2023-12-22T14:13:50;223.52;;;210.98;;